createdAt,value
2019-03-05T00:00:16.985Z,60.02
2019-03-05T00:01:16.965Z,59.68
2019-03-05T00:02:16.954Z,59.99
2019-03-05T00:03:16.943Z,60.09
2019-03-05T00:04:16.933Z,59.89
2019-03-05T00:05:16.939Z,59.68
2019-03-05T00:06:16.914Z,59.68
2019-03-05T00:07:16.901Z,59.89
2019-03-05T00:08:16.889Z,59.89
2019-03-05T00:09:16.880Z,60.19
2019-03-05T00:10:16.880Z,59.68
2019-03-05T00:11:16.860Z,59.99
2019-03-05T00:12:16.849Z,59.89
2019-03-05T00:13:16.839Z,60.30
2019-03-05T00:14:18.878Z,59.89
2019-03-05T00:15:16.826Z,60.09
2019-03-05T00:16:16.804Z,59.89
2019-03-05T00:17:16.792Z,59.68
2019-03-05T00:18:16.788Z,59.99
2019-03-05T00:19:16.771Z,59.99
2019-03-05T00:20:16.771Z,59.99
2019-03-05T00:21:16.751Z,59.89
2019-03-05T00:22:16.744Z,59.99
2019-03-05T00:23:16.731Z,60.09
2019-03-05T00:24:16.718Z,60.09
2019-03-05T00:25:16.719Z,60.91
2019-03-05T00:26:16.700Z,59.58
2019-03-05T00:27:16.687Z,59.47
2019-03-05T00:28:16.676Z,59.37
2019-03-05T00:29:16.666Z,60.09
2019-03-05T00:30:16.666Z,59.68
2019-03-05T00:31:16.643Z,59.99
2019-03-05T00:32:16.633Z,59.47
2019-03-05T00:33:16.623Z,60.30
2019-03-05T00:34:16.611Z,60.50
2019-03-05T00:35:16.614Z,60.19
2019-03-05T00:36:16.590Z,60.37
2019-03-05T00:37:16.580Z,59.68
2019-03-05T00:38:16.569Z,59.68
2019-03-05T00:39:16.561Z,59.86
2019-03-05T00:40:16.557Z,59.58
2019-03-05T00:41:16.540Z,59.65
2019-03-05T00:42:16.526Z,59.89
2019-03-05T00:43:16.516Z,59.99
2019-03-05T00:44:16.505Z,59.86
2019-03-05T00:45:16.502Z,60.30
2019-03-05T00:46:16.483Z,59.89
2019-03-05T00:47:16.481Z,59.68
2019-03-05T00:48:16.464Z,60.19
2019-03-05T00:49:16.453Z,60.09
2019-03-05T00:50:16.449Z,60.17
2019-03-05T00:51:24.465Z,60.58
2019-03-05T00:52:17.421Z,59.65
2019-03-05T00:53:16.415Z,60.06
2019-03-05T00:54:16.398Z,60.40
2019-03-05T00:55:16.396Z,59.75
2019-03-05T00:56:16.379Z,60.06
2019-03-05T00:57:16.367Z,60.40
2019-03-05T00:58:16.356Z,59.58
2019-03-05T00:59:16.369Z,60.58
2019-03-05T01:00:16.345Z,60.27
2019-03-05T01:01:16.322Z,60.27
2019-03-05T01:02:16.311Z,60.47
2019-03-05T01:03:16.302Z,59.65
2019-03-05T01:04:16.290Z,60.37
2019-03-05T01:05:16.288Z,60.06
2019-03-05T01:06:16.275Z,60.06
2019-03-05T01:07:16.260Z,59.65
2019-03-05T01:08:16.249Z,59.96
2019-03-05T01:09:16.237Z,59.99
2019-03-05T01:10:16.239Z,59.34
2019-03-05T01:11:16.217Z,60.06
2019-03-05T01:12:16.213Z,59.86
2019-03-05T01:13:16.196Z,59.65
2019-03-05T01:14:16.184Z,59.96
2019-03-05T01:15:16.182Z,59.45
2019-03-05T01:16:16.162Z,59.96
2019-03-05T01:17:16.151Z,60.06
2019-03-05T01:18:16.142Z,59.55
2019-03-05T01:19:16.131Z,59.96
2019-03-05T01:20:16.135Z,59.96
2019-03-05T01:21:16.111Z,59.86
2019-03-05T01:22:16.098Z,60.17
2019-03-05T01:23:16.090Z,60.06
2019-03-05T01:24:16.081Z,59.34
2019-03-05T01:25:16.075Z,59.45
2019-03-05T01:26:16.059Z,60.06
2019-03-05T01:27:16.049Z,60.06
2019-03-05T01:28:16.035Z,59.45
2019-03-05T01:29:16.022Z,59.86
2019-03-05T01:30:16.029Z,59.96
2019-03-05T01:31:16.001Z,59.55
2019-03-05T01:32:15.991Z,59.55
2019-03-05T01:33:15.980Z,59.24
2019-03-05T01:34:15.973Z,59.34
2019-03-05T01:35:15.967Z,59.65
2019-03-05T01:36:15.947Z,59.75
2019-03-05T01:37:15.938Z,59.24
2019-03-05T01:38:15.927Z,59.58
2019-03-05T01:39:15.921Z,59.14
2019-03-05T01:40:15.916Z,59.65
2019-03-05T01:41:15.894Z,59.24
2019-03-05T01:42:15.890Z,59.86
2019-03-05T01:43:15.872Z,59.34
2019-03-05T01:44:15.864Z,60.09
2019-03-05T01:45:15.875Z,59.86
2019-03-05T01:46:15.842Z,59.65
2019-03-05T01:47:15.830Z,59.99
2019-03-05T01:48:15.922Z,60.17
2019-03-05T01:49:15.815Z,60.09
2019-03-05T01:50:15.826Z,60.09
2019-03-05T01:51:15.791Z,59.99
2019-03-05T01:52:15.779Z,60.19
2019-03-05T01:53:15.768Z,59.99
2019-03-05T01:54:15.757Z,59.89
2019-03-05T01:55:15.743Z,59.99
2019-03-05T01:56:15.744Z,59.78
2019-03-05T01:57:15.722Z,59.37
2019-03-05T01:58:15.712Z,59.78
2019-03-05T01:59:15.700Z,60.30
2019-03-05T02:00:15.691Z,60.30
2019-03-05T02:01:15.689Z,59.99
2019-03-05T02:02:15.668Z,60.40
2019-03-05T02:03:15.661Z,60.91
2019-03-05T02:04:15.647Z,60.91
2019-03-05T02:05:15.638Z,61.02
2019-03-05T02:06:15.637Z,60.40
2019-03-05T02:07:15.618Z,60.81
2019-03-05T02:08:15.605Z,61.02
2019-03-05T02:09:15.593Z,60.81
2019-03-05T02:10:15.585Z,60.91
2019-03-05T02:11:15.582Z,60.30
2019-03-05T02:12:15.562Z,59.99
2019-03-05T02:13:15.551Z,61.02
2019-03-05T02:14:15.542Z,60.40
2019-03-05T02:15:15.530Z,60.33
2019-03-05T02:16:15.531Z,60.91
2019-03-05T02:17:15.506Z,61.12
2019-03-05T02:18:15.498Z,61.05
2019-03-05T02:19:15.485Z,60.84
2019-03-05T02:20:15.475Z,60.94
2019-03-05T02:21:15.478Z,60.84
2019-03-05T02:22:15.456Z,60.84
2019-03-05T02:23:15.444Z,61.33
2019-03-05T02:24:15.437Z,61.33
2019-03-05T02:25:15.425Z,61.33
2019-03-05T02:26:15.421Z,61.46
2019-03-05T02:27:15.399Z,61.63
2019-03-05T02:28:15.389Z,61.63
2019-03-05T02:29:15.380Z,60.63
2019-03-05T02:30:15.369Z,60.30
2019-03-05T02:31:15.366Z,60.61
2019-03-05T02:32:15.348Z,60.71
2019-03-05T02:33:15.343Z,60.91
2019-03-05T02:34:15.328Z,60.09
2019-03-05T02:35:15.314Z,60.81
2019-03-05T02:36:15.303Z,61.12
2019-03-05T02:37:15.306Z,59.99
2019-03-05T02:38:15.291Z,60.19
2019-03-05T02:39:15.272Z,60.09
2019-03-05T02:40:15.282Z,59.78
2019-03-05T02:41:15.253Z,59.58
2019-03-05T02:42:15.254Z,59.99
2019-03-05T02:43:15.357Z,59.99
2019-03-05T02:44:15.230Z,59.68
2019-03-05T02:45:15.209Z,60.19
2019-03-05T02:46:15.200Z,60.19
2019-03-05T02:47:15.202Z,60.12
2019-03-05T02:48:15.178Z,60.71
2019-03-05T02:49:15.169Z,60.61
2019-03-05T02:50:15.159Z,60.84
2019-03-05T02:51:15.147Z,61.05
2019-03-05T02:52:15.144Z,61.33
2019-03-05T02:53:15.125Z,60.94
2019-03-05T02:54:15.118Z,60.63
2019-03-05T02:55:15.103Z,61.15
2019-03-05T02:56:15.093Z,60.84
2019-03-05T02:57:15.101Z,61.15
2019-03-05T02:58:15.067Z,61.15
2019-03-05T02:59:15.058Z,61.05
2019-03-05T03:00:15.053Z,61.77
2019-03-05T03:01:15.038Z,61.35
2019-03-05T03:02:15.038Z,61.35
2019-03-05T03:03:15.019Z,61.87
2019-03-05T03:04:15.006Z,61.56
2019-03-05T03:05:14.995Z,61.46
2019-03-05T03:06:14.992Z,61.87
2019-03-05T03:07:14.982Z,61.56
2019-03-05T03:08:14.968Z,61.87
2019-03-05T03:09:14.952Z,61.46
2019-03-05T03:10:14.945Z,61.77
2019-03-05T03:11:14.933Z,62.59
2019-03-05T03:12:14.926Z,62.18
2019-03-05T03:13:14.921Z,62.70
2019-03-05T03:14:14.908Z,62.62
2019-03-05T03:15:14.887Z,62.59
2019-03-05T03:16:14.874Z,62.62
2019-03-05T03:17:14.878Z,62.28
2019-03-05T03:18:14.856Z,62.49
2019-03-05T03:19:14.844Z,62.28
2019-03-05T03:20:14.834Z,63.13
2019-03-05T03:21:14.824Z,62.70
2019-03-05T03:22:14.851Z,62.70
2019-03-05T03:23:14.802Z,62.79
2019-03-05T03:24:14.791Z,63.21
2019-03-05T03:25:14.778Z,62.70
2019-03-05T03:26:14.777Z,62.79
2019-03-05T03:27:14.770Z,63.10
2019-03-05T03:28:14.755Z,63.00
2019-03-05T03:29:14.736Z,63.21
2019-03-05T03:30:14.729Z,63.21
2019-03-05T03:31:14.716Z,62.90
2019-03-05T03:32:14.878Z,63.21
2019-03-05T03:33:14.700Z,63.10
2019-03-05T03:34:14.830Z,63.10
2019-03-05T03:35:14.672Z,63.10
2019-03-05T03:36:14.663Z,63.52
2019-03-05T03:37:14.665Z,63.21
2019-03-05T03:38:14.641Z,63.93
2019-03-05T03:39:14.642Z,63.62
2019-03-05T03:40:14.624Z,63.93
2019-03-05T03:41:14.615Z,63.93
2019-03-05T03:42:14.607Z,63.82
2019-03-05T03:43:14.587Z,63.10
2019-03-05T03:44:14.640Z,63.62
2019-03-05T03:45:14.565Z,64.14
2019-03-05T03:46:14.555Z,63.42
2019-03-05T03:47:14.553Z,63.62
2019-03-05T03:48:14.542Z,64.14
2019-03-05T03:49:14.525Z,63.52
2019-03-05T03:50:14.512Z,63.49
2019-03-05T03:51:14.502Z,63.62
2019-03-05T03:52:14.503Z,63.52
2019-03-05T03:53:14.486Z,63.82
2019-03-05T03:54:14.488Z,63.62
2019-03-05T03:55:14.464Z,63.52
2019-03-05T03:56:14.450Z,63.72
2019-03-05T03:57:14.448Z,63.82
2019-03-05T03:58:14.429Z,64.03
2019-03-05T03:59:14.417Z,63.93
2019-03-05T04:00:14.403Z,63.59
2019-03-05T04:01:14.400Z,63.69
2019-03-05T04:02:14.393Z,64.11
2019-03-05T04:03:14.374Z,63.90
2019-03-05T04:04:14.362Z,64.00
2019-03-05T04:05:14.486Z,63.90
2019-03-05T04:06:14.346Z,63.90
2019-03-05T04:07:14.339Z,64.21
2019-03-05T04:08:14.316Z,64.00
2019-03-05T04:09:14.308Z,63.90
2019-03-05T04:10:14.298Z,63.90
2019-03-05T04:11:14.287Z,65.13
2019-03-05T04:12:14.286Z,64.72
2019-03-05T04:13:14.266Z,64.51
2019-03-05T04:14:14.254Z,64.41
2019-03-05T04:15:14.246Z,64.41
2019-03-05T04:16:14.234Z,64.41
2019-03-05T04:17:14.231Z,63.90
2019-03-05T04:18:14.216Z,64.62
2019-03-05T04:19:14.213Z,64.21
2019-03-05T04:20:14.192Z,64.51
2019-03-05T04:21:14.178Z,64.51
2019-03-05T04:22:14.180Z,64.31
2019-03-05T04:23:14.158Z,64.51
2019-03-05T04:24:14.153Z,64.83
2019-03-05T04:25:14.135Z,65.23
2019-03-05T04:26:14.126Z,64.93
2019-03-05T04:27:14.124Z,64.93
2019-03-05T04:28:14.109Z,65.65
2019-03-05T04:29:14.173Z,65.23
2019-03-05T04:30:14.107Z,65.75
2019-03-05T04:31:14.073Z,65.55
2019-03-05T04:32:14.072Z,65.86
2019-03-05T04:33:14.052Z,65.44
2019-03-05T04:34:14.041Z,65.86
2019-03-05T04:35:14.029Z,65.75
2019-03-05T04:36:14.019Z,65.75
2019-03-05T04:37:14.021Z,65.75
2019-03-05T04:38:13.996Z,65.65
2019-03-05T04:39:13.985Z,67.09
2019-03-05T04:40:13.978Z,66.58
2019-03-05T04:41:13.964Z,66.88
2019-03-05T04:42:13.966Z,66.47
2019-03-05T04:43:14.019Z,66.78
2019-03-05T04:44:13.932Z,67.60
2019-03-05T04:45:13.920Z,66.99
2019-03-05T04:46:13.909Z,67.81
2019-03-05T04:47:13.908Z,67.40
2019-03-05T04:48:13.887Z,67.40
2019-03-05T04:49:13.881Z,67.50
2019-03-05T04:50:13.880Z,67.71
2019-03-05T04:51:13.856Z,68.12
2019-03-05T04:52:13.888Z,67.60
2019-03-05T04:53:13.840Z,67.81
2019-03-05T04:54:13.825Z,67.71
2019-03-05T04:55:13.814Z,67.91
2019-03-05T04:56:13.803Z,67.81
2019-03-05T04:57:13.790Z,67.81
2019-03-05T04:58:13.789Z,67.71
2019-03-05T04:59:13.771Z,68.53
2019-03-05T05:00:13.762Z,67.81
2019-03-05T05:01:13.752Z,68.43
2019-03-05T05:02:13.738Z,68.43
2019-03-05T05:03:13.735Z,68.32
2019-03-05T05:04:13.718Z,68.22
2019-03-05T05:05:13.707Z,68.53
2019-03-05T05:06:13.698Z,68.02
2019-03-05T05:07:13.682Z,68.12
2019-03-05T05:08:13.683Z,68.22
2019-03-05T05:09:13.673Z,68.12
2019-03-05T05:10:13.662Z,68.22
2019-03-05T05:11:13.646Z,68.12
2019-03-05T05:12:13.633Z,68.32
2019-03-05T05:13:13.630Z,68.53
2019-03-05T05:14:13.610Z,68.32
2019-03-05T05:15:13.599Z,68.74
2019-03-05T05:16:13.590Z,68.02
2019-03-05T05:17:13.579Z,68.32
2019-03-05T05:18:13.581Z,68.84
2019-03-05T05:19:13.558Z,68.56
2019-03-05T05:20:13.570Z,68.35
2019-03-05T05:21:13.538Z,68.87
2019-03-05T05:22:13.533Z,68.05
2019-03-05T05:23:13.524Z,68.63
2019-03-05T05:24:13.504Z,68.35
2019-03-05T05:25:13.506Z,68.77
2019-03-05T05:26:13.488Z,68.25
2019-03-05T05:27:13.473Z,68.43
2019-03-05T05:28:13.473Z,68.87
2019-03-05T05:29:13.449Z,68.32
2019-03-05T05:30:13.442Z,68.35
2019-03-05T05:31:13.441Z,68.02
2019-03-05T05:32:13.426Z,68.74
2019-03-05T05:33:13.418Z,68.35
2019-03-05T05:34:13.399Z,67.84
2019-03-05T05:35:13.388Z,68.25
2019-03-05T05:36:13.383Z,68.22
2019-03-05T05:37:13.363Z,68.15
2019-03-05T05:38:13.367Z,68.56
2019-03-05T05:39:13.341Z,68.35
2019-03-05T05:40:13.332Z,69.15
2019-03-05T05:41:13.322Z,68.25
2019-03-05T05:42:13.310Z,69.25
2019-03-05T05:43:13.317Z,68.43
2019-03-05T05:44:13.287Z,68.87
2019-03-05T05:45:13.281Z,68.35
2019-03-05T05:46:13.269Z,68.66
2019-03-05T05:47:13.259Z,68.66
2019-03-05T05:48:13.255Z,68.94
2019-03-05T05:49:13.244Z,69.38
2019-03-05T05:50:13.226Z,68.56
2019-03-05T05:51:13.214Z,68.66
2019-03-05T05:52:13.207Z,68.87
2019-03-05T05:53:13.200Z,69.28
2019-03-05T05:54:13.186Z,68.77
2019-03-05T05:55:13.174Z,68.46
2019-03-05T05:56:13.164Z,69.07
2019-03-05T05:57:13.148Z,68.56
2019-03-05T05:58:13.154Z,68.77
2019-03-05T05:59:13.132Z,69.07
2019-03-05T06:00:13.125Z,68.35
2019-03-05T06:01:13.110Z,68.56
2019-03-05T06:02:13.097Z,68.35
2019-03-05T06:03:13.096Z,68.56
2019-03-05T06:04:13.081Z,68.74
2019-03-05T06:05:13.068Z,68.66
2019-03-05T06:06:13.055Z,68.46
2019-03-05T06:07:13.044Z,68.74
2019-03-05T06:08:13.166Z,68.25
2019-03-05T06:09:13.024Z,68.87
2019-03-05T06:10:13.012Z,68.77
2019-03-05T06:11:13.014Z,68.46
2019-03-05T06:12:12.993Z,68.87
2019-03-05T06:13:12.983Z,68.46
2019-03-05T06:14:12.977Z,68.46
2019-03-05T06:15:12.958Z,68.25
2019-03-05T06:16:12.947Z,68.25
2019-03-05T06:17:12.937Z,68.35
2019-03-05T06:18:12.935Z,68.56
2019-03-05T06:19:12.934Z,68.32
2019-03-05T06:20:12.904Z,68.46
2019-03-05T06:21:12.896Z,67.91
2019-03-05T06:22:12.882Z,68.15
2019-03-05T06:23:12.876Z,67.84
2019-03-05T06:24:12.874Z,67.94
2019-03-05T06:25:12.853Z,68.35
2019-03-05T06:26:12.840Z,68.25
2019-03-05T06:27:12.830Z,68.15
2019-03-05T06:28:12.819Z,67.40
2019-03-05T06:29:12.832Z,68.43
2019-03-05T06:30:12.805Z,68.43
2019-03-05T06:31:12.787Z,68.53
2019-03-05T06:32:12.780Z,68.56
2019-03-05T06:33:12.767Z,67.81
2019-03-05T06:34:12.767Z,68.43
2019-03-05T06:35:12.749Z,68.02
2019-03-05T06:36:12.736Z,67.91
2019-03-05T06:37:12.722Z,68.02
2019-03-05T06:38:12.711Z,67.91
2019-03-05T06:39:12.722Z,67.60
2019-03-05T06:40:12.695Z,67.91
2019-03-05T06:41:12.692Z,67.09
2019-03-05T06:42:12.672Z,67.30
2019-03-05T06:43:12.665Z,66.99
2019-03-05T06:44:12.657Z,67.09
2019-03-05T06:45:12.640Z,67.40
2019-03-05T06:46:12.623Z,67.19
2019-03-05T06:47:12.618Z,67.19
2019-03-05T06:48:12.610Z,67.30
2019-03-05T06:49:12.604Z,67.71
2019-03-05T06:50:12.582Z,67.19
2019-03-05T06:51:12.576Z,67.40
2019-03-05T06:52:12.569Z,67.09
2019-03-05T06:53:12.553Z,67.60
2019-03-05T06:54:12.549Z,67.40
2019-03-05T06:55:12.531Z,67.19
2019-03-05T06:56:12.517Z,67.47
2019-03-05T06:57:12.530Z,67.06
2019-03-05T06:58:12.497Z,67.06
2019-03-05T06:59:12.513Z,66.75
2019-03-05T07:00:12.476Z,67.16
2019-03-05T07:01:12.482Z,66.64
2019-03-05T07:02:12.460Z,66.54
2019-03-05T07:03:12.456Z,66.54
2019-03-05T07:04:12.443Z,66.54
2019-03-05T07:05:12.428Z,65.69
2019-03-05T07:06:12.412Z,65.62
2019-03-05T07:07:12.400Z,65.72
2019-03-05T07:08:12.390Z,65.72
2019-03-05T07:09:12.398Z,65.92
2019-03-05T07:10:12.368Z,65.72
2019-03-05T07:11:12.371Z,65.89
2019-03-05T07:12:12.346Z,65.69
2019-03-05T07:13:12.344Z,65.69
2019-03-05T07:14:12.334Z,65.59
2019-03-05T07:15:12.314Z,65.89
2019-03-05T07:16:12.309Z,65.48
2019-03-05T07:17:12.294Z,64.87
2019-03-05T07:18:12.287Z,65.28
2019-03-05T07:19:12.294Z,64.97
2019-03-05T07:20:12.261Z,64.46
2019-03-05T07:21:12.255Z,64.25
2019-03-05T07:22:12.243Z,64.01
2019-03-05T07:23:12.229Z,64.32
2019-03-05T07:24:12.231Z,63.78
2019-03-05T07:25:12.316Z,63.78
2019-03-05T07:26:12.205Z,62.93
2019-03-05T07:27:12.216Z,62.18
2019-03-05T07:28:12.178Z,61.64
2019-03-05T07:29:12.209Z,60.79
2019-03-05T07:30:12.154Z,60.15
2019-03-05T07:31:12.153Z,59.74
2019-03-05T07:32:12.135Z,59.74
2019-03-05T07:33:12.125Z,58.66
2019-03-05T07:34:12.181Z,58.43
2019-03-05T07:35:12.621Z,57.38
2019-03-05T07:36:12.093Z,57.04
2019-03-05T07:37:12.080Z,55.62
2019-03-05T07:38:12.069Z,55.08
2019-03-05T07:39:12.059Z,53.42
2019-03-05T07:40:12.057Z,52.34
2019-03-05T07:41:12.037Z,52.98
2019-03-05T07:42:12.036Z,54.26
2019-03-05T07:43:12.012Z,53.01
2019-03-05T07:44:12.002Z,53.06
2019-03-05T07:45:12.054Z,53.36
2019-03-05T07:46:11.980Z,51.76
2019-03-05T07:47:11.970Z,50.29
2019-03-05T07:48:11.962Z,50.64
2019-03-05T07:49:11.948Z,51.38
2019-03-05T07:50:11.953Z,52.32
2019-03-05T07:51:11.931Z,52.37
2019-03-05T07:52:11.916Z,52.98
2019-03-05T07:53:11.903Z,53.11
2019-03-05T07:54:11.895Z,53.67
2019-03-05T07:55:13.844Z,51.03
2019-03-05T07:56:11.876Z,47.60
2019-03-05T07:57:11.862Z,48.68
2019-03-05T07:58:11.900Z,48.54
2019-03-05T07:59:11.842Z,48.94
2019-03-05T08:00:11.839Z,48.72
2019-03-05T08:01:21.807Z,46.21
2019-03-05T08:02:12.807Z,46.59
2019-03-05T08:03:11.798Z,45.33
2019-03-05T08:04:11.786Z,45.58
2019-03-05T08:05:11.793Z,47.14
2019-03-05T08:06:11.764Z,47.29
2019-03-05T08:07:11.756Z,48.74
2019-03-05T08:08:11.745Z,48.89
2019-03-05T08:09:11.737Z,48.99
2019-03-05T08:10:11.756Z,50.03
2019-03-05T08:11:11.708Z,50.67
2019-03-05T08:12:11.700Z,50.79
2019-03-05T08:13:11.694Z,51.43
2019-03-05T08:14:11.679Z,50.92
2019-03-05T08:15:11.669Z,52.29
2019-03-05T08:16:11.671Z,52.19
2019-03-05T08:17:11.651Z,53.01
2019-03-05T08:18:11.636Z,53.64
2019-03-05T08:19:11.626Z,53.34
2019-03-05T08:20:11.629Z,53.54
2019-03-05T08:21:11.629Z,53.88
2019-03-05T08:22:11.593Z,53.26
2019-03-05T08:23:11.597Z,54.00
2019-03-05T08:24:11.583Z,54.10
2019-03-05T08:25:11.582Z,53.69
2019-03-05T08:26:11.558Z,54.61
2019-03-05T08:27:11.539Z,54.92
2019-03-05T08:28:11.529Z,54.82
2019-03-05T08:29:11.516Z,54.59
2019-03-05T08:30:14.670Z,54.31
2019-03-05T08:31:11.525Z,54.92
2019-03-05T08:32:11.483Z,54.85
2019-03-05T08:33:11.479Z,54.95
2019-03-05T08:34:11.462Z,55.02
2019-03-05T08:35:11.450Z,53.44
2019-03-05T08:36:11.452Z,53.26
2019-03-05T08:37:13.477Z,52.37
2019-03-05T08:38:11.426Z,52.67
2019-03-05T08:39:11.408Z,51.15
2019-03-05T08:40:11.402Z,51.61
2019-03-05T08:41:11.396Z,49.27
2019-03-05T08:42:11.382Z,50.34
2019-03-05T08:43:11.367Z,48.21
2019-03-05T08:44:11.358Z,47.70
2019-03-05T08:45:11.343Z,46.53
2019-03-05T08:46:11.346Z,46.21
2019-03-05T08:47:11.323Z,46.41
2019-03-05T08:48:11.312Z,46.36
2019-03-05T08:49:11.302Z,45.60
2019-03-05T08:50:11.296Z,44.70
2019-03-05T08:51:11.287Z,42.96
2019-03-05T08:52:11.269Z,43.65
2019-03-05T08:53:11.258Z,45.14
2019-03-05T08:54:11.251Z,46.37
2019-03-05T08:55:11.238Z,48.25
2019-03-05T08:56:11.235Z,47.26
2019-03-05T08:57:11.215Z,47.97
2019-03-05T08:58:11.203Z,48.48
2019-03-05T08:59:11.194Z,47.62
2019-03-05T09:00:11.192Z,46.13
2019-03-05T09:01:11.197Z,44.44
2019-03-05T09:02:11.163Z,45.01
2019-03-05T09:03:11.155Z,43.59
2019-03-05T09:04:11.139Z,42.31
2019-03-05T09:05:11.127Z,42.47
2019-03-05T09:06:11.125Z,44.24
2019-03-05T09:07:11.124Z,42.78
2019-03-05T09:08:11.096Z,42.47
2019-03-05T09:09:11.089Z,44.38
2019-03-05T09:10:11.078Z,44.95
2019-03-05T09:11:11.072Z,47.01
2019-03-05T09:12:11.051Z,46.11
2019-03-05T09:13:11.043Z,47.05
2019-03-05T09:14:11.034Z,48.10
2019-03-05T09:15:11.020Z,48.50
2019-03-05T09:16:11.022Z,47.81
2019-03-05T09:17:11.000Z,48.22
2019-03-05T09:18:10.992Z,49.24
2019-03-05T09:19:10.978Z,49.46
2019-03-05T09:20:10.965Z,49.46
2019-03-05T09:21:10.965Z,49.38
2019-03-05T09:22:10.948Z,50.20
2019-03-05T09:23:10.935Z,50.43
2019-03-05T09:24:10.925Z,48.93
2019-03-05T09:25:10.956Z,49.37
2019-03-05T09:26:10.912Z,50.31
2019-03-05T09:27:10.891Z,50.23
2019-03-05T09:28:10.970Z,50.04
2019-03-05T09:29:10.899Z,51.19
2019-03-05T09:30:10.861Z,52.72
2019-03-05T09:31:10.863Z,52.24
2019-03-05T09:32:10.849Z,52.14
2019-03-05T09:33:10.827Z,53.06
2019-03-05T09:34:10.814Z,53.06
2019-03-05T09:35:10.805Z,53.26
2019-03-05T09:36:10.804Z,53.26
2019-03-05T09:37:10.783Z,53.90
2019-03-05T09:38:10.773Z,54.08
2019-03-05T09:39:10.770Z,53.69
2019-03-05T09:40:10.753Z,54.41
2019-03-05T09:41:10.751Z,53.52
2019-03-05T09:42:10.729Z,54.44
2019-03-05T09:43:10.719Z,54.44
2019-03-05T09:44:10.708Z,53.72
2019-03-05T09:45:10.714Z,54.44
2019-03-05T09:46:10.694Z,54.74
2019-03-05T09:47:10.676Z,55.08
2019-03-05T09:48:10.668Z,54.77
2019-03-05T09:49:10.654Z,54.33
2019-03-05T09:50:10.644Z,54.85
2019-03-05T09:51:10.642Z,54.77
2019-03-05T09:52:10.620Z,55.58
2019-03-05T09:53:10.609Z,55.79
2019-03-05T09:54:10.611Z,55.58
2019-03-05T09:55:10.589Z,56.30
2019-03-05T09:56:10.604Z,56.69
2019-03-05T09:57:10.567Z,56.25
2019-03-05T09:58:10.558Z,53.57
2019-03-05T09:59:10.546Z,50.80
2019-03-05T10:00:10.535Z,49.28
2019-03-05T10:01:10.600Z,49.25
2019-03-05T10:02:10.550Z,49.33
2019-03-05T10:03:10.541Z,47.63
2019-03-05T10:04:10.492Z,45.98
2019-03-05T10:05:10.482Z,48.61
2019-03-05T10:06:10.473Z,48.59
2019-03-05T10:07:18.595Z,47.83
2019-03-05T10:08:11.447Z,44.65
2019-03-05T10:09:10.438Z,44.70
2019-03-05T10:10:10.429Z,44.27
2019-03-05T10:11:10.420Z,44.38
2019-03-05T10:12:10.676Z,43.52
2019-03-05T10:13:10.399Z,42.35
2019-03-05T10:14:10.386Z,40.05
2019-03-05T10:15:10.375Z,39.31
2019-03-05T10:16:10.363Z,38.20
2019-03-05T10:17:10.361Z,39.45
2019-03-05T10:18:13.045Z,40.33
2019-03-05T10:19:10.335Z,40.64
2019-03-05T10:20:10.323Z,41.89
2019-03-05T10:21:11.957Z,42.01
2019-03-05T10:22:10.317Z,41.95
2019-03-05T10:23:10.289Z,40.33
2019-03-05T10:24:10.990Z,40.80
2019-03-05T10:25:12.781Z,42.13
2019-03-05T10:26:10.656Z,40.25
2019-03-05T10:27:10.257Z,40.37
2019-03-05T10:28:10.231Z,42.25
2019-03-05T10:29:10.225Z,42.47
2019-03-05T10:30:10.217Z,42.90
2019-03-05T10:31:10.203Z,42.25
2019-03-05T10:32:10.202Z,41.72
2019-03-05T10:33:10.179Z,41.64
2019-03-05T10:34:10.171Z,42.05
2019-03-05T10:35:10.159Z,41.93
2019-03-05T10:36:10.157Z,40.91
2019-03-05T10:37:17.603Z,40.29
2019-03-05T10:38:11.125Z,40.17
2019-03-05T10:39:10.116Z,41.30
2019-03-05T10:40:10.107Z,40.39
2019-03-05T10:41:10.096Z,39.50
2019-03-05T10:42:10.096Z,37.43
2019-03-05T10:43:10.078Z,37.37
2019-03-05T10:44:10.063Z,38.61
2019-03-05T10:45:10.053Z,38.93
2019-03-05T10:46:10.041Z,38.61
2019-03-05T10:47:10.038Z,38.48
2019-03-05T10:48:10.019Z,36.47
2019-03-05T10:49:10.019Z,37.74
2019-03-05T10:50:15.324Z,39.19
2019-03-05T10:51:10.990Z,38.06
2019-03-05T10:52:09.990Z,39.06
2019-03-05T10:53:09.964Z,38.26
2019-03-05T10:54:09.956Z,38.04
2019-03-05T10:55:09.945Z,38.67
2019-03-05T10:56:09.935Z,38.48
2019-03-05T10:57:09.936Z,39.51
2019-03-05T10:58:09.912Z,40.16
2019-03-05T10:59:09.903Z,41.09
2019-03-05T11:00:09.893Z,41.72
2019-03-05T11:01:09.880Z,42.55
2019-03-05T11:02:09.879Z,42.76
2019-03-05T11:03:09.859Z,42.88
2019-03-05T11:04:09.849Z,42.19
2019-03-05T11:05:09.838Z,43.00
2019-03-05T11:06:09.827Z,43.23
2019-03-05T11:07:09.821Z,43.32
2019-03-05T11:08:09.805Z,43.04
2019-03-05T11:09:09.795Z,43.44
2019-03-05T11:10:09.785Z,44.79
2019-03-05T11:11:13.759Z,44.61
2019-03-05T11:12:09.769Z,44.73
2019-03-05T11:13:09.752Z,44.83
2019-03-05T11:14:09.741Z,45.34
2019-03-05T11:15:09.734Z,45.26
2019-03-05T11:16:09.721Z,45.28
2019-03-05T11:17:09.710Z,46.51
2019-03-05T11:18:09.705Z,47.12
2019-03-05T11:19:09.691Z,46.41
2019-03-05T11:20:09.716Z,47.34
2019-03-05T11:21:09.666Z,46.83
2019-03-05T11:22:09.657Z,47.55
2019-03-05T11:23:11.540Z,46.63
2019-03-05T11:24:09.633Z,46.48
2019-03-05T11:25:09.624Z,45.24
2019-03-05T11:26:09.618Z,44.69
2019-03-05T11:27:09.604Z,44.40
2019-03-05T11:28:09.604Z,45.01
2019-03-05T11:29:09.584Z,45.54
2019-03-05T11:30:09.568Z,45.26
2019-03-05T11:31:09.557Z,45.67
2019-03-05T11:32:09.548Z,46.51
2019-03-05T11:33:09.550Z,46.81
2019-03-05T11:34:09.535Z,46.92
2019-03-05T11:35:09.515Z,46.43
2019-03-05T11:36:09.501Z,46.53
2019-03-05T11:37:09.492Z,46.83
2019-03-05T11:38:09.753Z,46.45
2019-03-05T11:39:09.469Z,47.16
2019-03-05T11:40:09.467Z,47.47
2019-03-05T11:41:09.452Z,47.47
2019-03-05T11:42:09.443Z,46.88
2019-03-05T11:43:09.444Z,47.08
2019-03-05T11:44:09.421Z,47.29
2019-03-05T11:45:11.704Z,46.70
2019-03-05T11:46:09.395Z,47.52
2019-03-05T11:47:09.384Z,47.92
2019-03-05T11:48:09.382Z,48.02
2019-03-05T11:49:09.368Z,47.82
2019-03-05T11:50:09.364Z,47.82
2019-03-05T11:51:09.345Z,47.82
2019-03-05T11:52:09.332Z,48.02
2019-03-05T11:53:09.331Z,48.02
2019-03-05T11:54:09.308Z,48.25
2019-03-05T11:55:09.310Z,48.66
2019-03-05T11:56:09.292Z,48.89
2019-03-05T11:57:09.277Z,48.66
2019-03-05T11:58:09.274Z,49.50
2019-03-05T11:59:09.256Z,49.09
2019-03-05T12:00:09.249Z,48.79
2019-03-05T12:01:09.238Z,48.58
2019-03-05T12:02:09.929Z,50.01
2019-03-05T12:03:09.220Z,50.45
2019-03-05T12:04:09.201Z,50.73
2019-03-05T12:05:09.191Z,50.85
2019-03-05T12:06:09.197Z,50.96
2019-03-05T12:07:09.172Z,51.47
2019-03-05T12:08:09.176Z,51.24
2019-03-05T12:09:09.152Z,51.27
2019-03-05T12:10:09.138Z,50.10
2019-03-05T12:11:09.129Z,49.24
2019-03-05T12:12:09.114Z,48.30
2019-03-05T12:13:09.122Z,48.58
2019-03-05T12:14:09.093Z,49.40
2019-03-05T12:15:09.090Z,48.79
2019-03-05T12:16:09.072Z,48.48
2019-03-05T12:17:09.060Z,48.48
2019-03-05T12:18:09.058Z,48.27
2019-03-05T12:19:09.058Z,49.19
2019-03-05T12:20:09.029Z,47.34
2019-03-05T12:21:09.031Z,47.34
2019-03-05T12:22:09.011Z,47.34
2019-03-05T12:23:10.476Z,48.13
2019-03-05T12:24:08.994Z,48.21
2019-03-05T12:25:08.977Z,47.19
2019-03-05T12:26:08.965Z,46.37
2019-03-05T12:27:08.955Z,46.97
2019-03-05T12:28:10.648Z,45.44
2019-03-05T12:29:08.932Z,44.91
2019-03-05T12:30:08.922Z,44.20
2019-03-05T12:31:08.912Z,44.42
2019-03-05T12:32:08.936Z,42.69
2019-03-05T12:33:08.900Z,44.32
2019-03-05T12:34:08.882Z,43.81
2019-03-05T12:35:08.869Z,44.02
2019-03-05T12:36:08.858Z,43.81
2019-03-05T12:37:08.849Z,44.22
2019-03-05T12:38:08.863Z,43.61
2019-03-05T12:39:08.826Z,43.29
2019-03-05T12:40:08.811Z,43.10
2019-03-05T12:41:08.804Z,42.37
2019-03-05T12:42:08.790Z,42.98
2019-03-05T12:43:08.791Z,43.18
2019-03-05T12:44:08.771Z,42.77
2019-03-05T12:45:08.762Z,43.00
2019-03-05T12:46:08.751Z,43.71
2019-03-05T12:47:08.737Z,43.29
2019-03-05T12:48:08.763Z,42.25
2019-03-05T12:49:08.719Z,42.66
2019-03-05T12:50:08.704Z,42.63
2019-03-05T12:51:08.698Z,41.38
2019-03-05T12:52:08.684Z,40.94